createdAt,value
2018-12-19T00:02:30.857Z,19.70
2018-12-19T00:05:37.116Z,13.30
2018-12-19T00:08:43.307Z,13.85
2018-12-19T00:11:49.554Z,18.80
2018-12-19T00:14:55.876Z,14.65
2018-12-19T00:18:02.214Z,16.97
2018-12-19T00:21:08.469Z,15.30
2018-12-19T00:24:14.681Z,19.67
2018-12-19T00:27:21.395Z,22.42
2018-12-19T00:30:27.647Z,22.95
2018-12-19T00:33:34.235Z,20.00
2018-12-19T00:36:40.610Z,19.52
2018-12-19T00:39:46.837Z,16.20
2018-12-19T00:42:53.083Z,19.57
2018-12-19T00:45:59.323Z,14.70
2018-12-19T00:49:05.491Z,24.77
2018-12-19T00:52:11.838Z,17.85
2018-12-19T00:55:18.026Z,18.12
2018-12-19T00:58:24.273Z,17.77
2018-12-19T01:01:30.511Z,13.60
2018-12-19T01:04:36.780Z,15.45
2018-12-19T01:07:43.097Z,16.95
2018-12-19T01:10:49.333Z,18.10
2018-12-19T01:13:55.591Z,12.43
2018-12-19T01:17:01.808Z,21.77
2018-12-19T01:20:08.077Z,9.85
2018-12-19T01:23:14.333Z,19.60
2018-12-19T01:26:21.579Z,10.70
2018-12-19T01:29:27.972Z,11.12
2018-12-19T01:32:34.220Z,12.88
2018-12-19T01:35:40.885Z,9.45
2018-12-19T01:38:47.373Z,13.50
2018-12-19T01:41:53.642Z,10.13
2018-12-19T01:44:59.859Z,20.55
2018-12-19T01:48:06.349Z,10.20
2018-12-19T01:51:12.511Z,13.88
2018-12-19T01:54:19.576Z,16.93
2018-12-19T01:57:25.726Z,10.50
2018-12-19T02:00:32.573Z,11.38
2018-12-19T02:03:38.799Z,8.50
2018-12-19T02:06:45.181Z,9.65
2018-12-19T02:09:51.648Z,10.13
2018-12-19T02:12:58.037Z,16.42
2018-12-19T02:16:04.302Z,10.23
2018-12-19T02:19:10.570Z,10.20
2018-12-19T02:22:16.738Z,9.90
2018-12-19T02:25:23.088Z,11.00
2018-12-19T02:28:29.477Z,11.33
2018-12-19T02:31:35.925Z,10.88
2018-12-19T02:34:42.881Z,10.60
2018-12-19T02:37:49.017Z,7.62
2018-12-19T02:40:55.277Z,8.63
2018-12-19T02:44:01.569Z,11.78
2018-12-19T02:47:07.845Z,9.05
2018-12-19T02:50:15.307Z,12.70
2018-12-19T02:53:21.465Z,7.75
2018-12-19T02:56:27.737Z,9.65
2018-12-19T02:59:33.875Z,13.05
2018-12-19T03:02:40.163Z,18.37
2018-12-19T03:05:46.349Z,7.25
2018-12-19T03:08:52.558Z,7.95
2018-12-19T03:11:58.747Z,9.28
2018-12-19T03:15:05.435Z,7.00
2018-12-19T03:18:11.590Z,8.35
2018-12-19T03:21:18.404Z,8.40
2018-12-19T03:24:24.597Z,8.20
2018-12-19T03:27:30.858Z,7.92
2018-12-19T03:30:37.062Z,6.22
2018-12-19T03:33:44.606Z,8.73
2018-12-19T03:36:50.877Z,12.95
2018-12-19T03:39:57.200Z,13.05
2018-12-19T03:43:03.511Z,11.12
2018-12-19T03:46:10.013Z,7.67
2018-12-19T03:49:17.370Z,8.93
2018-12-19T03:52:23.804Z,8.95
2018-12-19T03:55:30.222Z,9.13
2018-12-19T03:58:36.404Z,9.30
2018-12-19T04:01:42.594Z,6.75
2018-12-19T04:04:49.888Z,8.30
2018-12-19T04:07:56.161Z,8.78
2018-12-19T04:11:02.509Z,9.05
2018-12-19T04:14:08.672Z,11.63
2018-12-19T04:17:14.831Z,11.35
2018-12-19T04:20:21.680Z,9.07
2018-12-19T04:23:27.870Z,11.27
2018-12-19T04:26:34.147Z,12.37
2018-12-19T04:29:40.715Z,11.15
2018-12-19T04:32:47.230Z,10.28
2018-12-19T04:35:53.823Z,8.70
2018-12-19T04:39:00.178Z,9.43
2018-12-19T04:42:06.431Z,9.30
2018-12-19T04:45:12.655Z,9.23
2018-12-19T04:48:19.552Z,8.50
2018-12-19T04:51:26.024Z,13.58
2018-12-19T04:54:32.257Z,11.08
2018-12-19T04:57:38.453Z,10.30
2018-12-19T05:00:44.678Z,8.03
2018-12-19T05:03:51.078Z,11.38
2018-12-19T05:06:57.355Z,13.18
2018-12-19T05:10:03.943Z,9.53
2018-12-19T05:13:10.076Z,8.47
2018-12-19T05:16:16.239Z,13.60
2018-12-19T05:19:22.913Z,9.70
2018-12-19T05:22:29.219Z,10.43
2018-12-19T05:25:35.490Z,11.05
2018-12-19T05:28:41.733Z,11.20
2018-12-19T05:31:47.898Z,11.90
2018-12-19T05:34:55.365Z,8.25
2018-12-19T05:38:01.538Z,8.37
2018-12-19T05:41:07.692Z,10.83
2018-12-19T05:44:14.441Z,11.27
2018-12-19T05:47:21.007Z,9.13
2018-12-19T05:50:29.230Z,9.13
2018-12-19T05:53:35.438Z,14.17
2018-12-19T05:56:41.593Z,10.30
2018-12-19T05:59:48.511Z,9.27
2018-12-19T06:02:55.000Z,11.13
2018-12-19T06:06:01.199Z,13.67
2018-12-19T06:09:08.065Z,11.90
2018-12-19T06:12:14.253Z,12.53
2018-12-19T06:15:20.818Z,17.43
2018-12-19T06:18:27.033Z,11.20
2018-12-19T06:21:33.242Z,17.77
2018-12-19T06:24:39.410Z,13.90
2018-12-19T06:27:45.595Z,12.40
2018-12-19T06:30:51.741Z,12.90
2018-12-19T06:33:59.361Z,10.63
2018-12-19T06:37:05.833Z,13.17
2018-12-19T06:40:12.083Z,14.30
2018-12-19T06:43:18.204Z,9.63
2018-12-19T06:46:24.442Z,12.03
2018-12-19T06:49:30.729Z,14.87
2018-12-19T06:52:36.907Z,11.00
2018-12-19T06:55:43.079Z,13.07
2018-12-19T06:58:49.247Z,17.70
2018-12-19T07:01:55.450Z,12.90
2018-12-19T07:05:01.633Z,13.00
2018-12-19T07:08:07.956Z,16.50
2018-12-19T07:11:14.202Z,12.93
2018-12-19T07:14:21.098Z,11.70
2018-12-19T07:17:27.221Z,12.23
2018-12-19T07:20:33.267Z,12.07
2018-12-19T07:23:40.297Z,14.40
2018-12-19T07:26:46.810Z,13.33
2018-12-19T07:29:54.045Z,11.80
2018-12-19T07:33:00.219Z,13.63
2018-12-19T07:36:06.511Z,15.67
2018-12-19T07:39:13.007Z,12.40
2018-12-19T07:42:19.265Z,12.70
2018-12-19T07:45:26.401Z,15.57
2018-12-19T07:48:33.289Z,12.87
2018-12-19T07:51:40.190Z,13.80
2018-12-19T07:54:46.280Z,13.17
2018-12-19T07:57:52.852Z,16.57
2018-12-19T08:00:59.406Z,12.73
2018-12-19T08:04:06.033Z,11.27
2018-12-19T08:07:12.636Z,12.17
2018-12-19T08:10:18.903Z,13.00
2018-12-19T08:13:25.386Z,13.33
2018-12-19T08:16:31.763Z,16.00
2018-12-19T08:19:38.031Z,12.67
2018-12-19T08:22:44.305Z,17.03
2018-12-19T08:25:50.409Z,13.27
2018-12-19T08:28:56.619Z,16.87
2018-12-19T08:32:04.018Z,16.70
2018-12-19T08:35:10.344Z,16.63
2018-12-19T08:38:16.433Z,14.90
2018-12-19T08:41:22.795Z,21.30
2018-12-19T08:44:29.462Z,17.30
2018-12-19T08:47:36.298Z,16.50
2018-12-19T08:50:42.534Z,21.33
2018-12-19T08:53:48.769Z,18.93
2018-12-19T08:56:54.966Z,24.07
2018-12-19T09:00:01.235Z,22.13
2018-12-19T09:03:07.671Z,21.23
2018-12-19T09:06:14.054Z,18.43
2018-12-19T09:09:20.372Z,20.97
2018-12-19T09:12:26.807Z,18.43
2018-12-19T09:15:38.405Z,20.00
2018-12-19T09:18:44.802Z,17.90
2018-12-19T09:21:51.126Z,21.60
2018-12-19T09:24:57.584Z,18.40
2018-12-19T09:28:04.708Z,21.53
2018-12-19T09:31:11.710Z,18.50
2018-12-19T09:34:18.025Z,16.00
2018-12-19T09:37:24.364Z,19.03
2018-12-19T09:40:30.849Z,16.33
2018-12-19T09:43:37.224Z,19.70
2018-12-19T09:46:43.915Z,19.00
2018-12-19T09:49:50.311Z,16.90
2018-12-19T09:52:56.844Z,19.63
2018-12-19T09:56:03.078Z,17.10
2018-12-19T09:59:09.395Z,15.13
2018-12-19T10:02:16.169Z,18.47
2018-12-19T10:05:22.774Z,20.53
2018-12-19T10:08:29.330Z,15.27
2018-12-19T10:11:35.654Z,19.30
2018-12-19T10:14:41.963Z,20.37
2018-12-19T10:17:49.062Z,15.87
2018-12-19T10:20:55.240Z,17.87
2018-12-19T10:24:01.684Z,15.77
2018-12-19T10:27:07.916Z,16.73
2018-12-19T10:30:15.245Z,17.83
2018-12-19T10:33:22.543Z,20.10
2018-12-19T10:36:34.122Z,17.47
2018-12-19T10:39:40.332Z,18.80
2018-12-19T10:42:46.586Z,19.43
2018-12-19T10:45:53.639Z,16.37
2018-12-19T10:48:59.824Z,13.70
2018-12-19T10:52:05.957Z,16.10
2018-12-19T10:55:12.137Z,20.70
2018-12-19T10:58:18.278Z,17.23
2018-12-19T11:01:24.498Z,18.53
2018-12-19T11:04:31.240Z,17.33
2018-12-19T11:07:37.442Z,18.23
2018-12-19T11:10:45.119Z,19.00
2018-12-19T11:13:51.608Z,15.37
2018-12-19T11:16:58.146Z,15.70
2018-12-19T11:20:05.013Z,16.37
2018-12-19T11:23:11.400Z,17.90
2018-12-19T11:26:17.762Z,15.53
2018-12-19T11:29:24.245Z,18.40
2018-12-19T11:32:30.786Z,16.23
2018-12-19T11:35:37.016Z,18.53
2018-12-19T11:38:43.311Z,16.43
2018-12-19T11:41:49.801Z,17.77
2018-12-19T11:44:56.904Z,17.00
2018-12-19T11:48:04.084Z,14.73
2018-12-19T11:51:10.444Z,16.13
2018-12-19T11:54:16.705Z,17.77
2018-12-19T11:57:22.955Z,15.77
2018-12-19T12:00:29.422Z,17.53
2018-12-19T12:03:35.750Z,13.47
2018-12-19T12:06:41.996Z,17.97
2018-12-19T12:09:48.648Z,16.50
2018-12-19T12:12:54.975Z,16.27
2018-12-19T12:16:01.255Z,15.87
2018-12-19T12:19:08.181Z,19.37
2018-12-19T12:22:14.425Z,20.40
2018-12-19T12:25:20.657Z,17.50
2018-12-19T12:28:26.895Z,20.90
2018-12-19T12:31:33.096Z,16.83
2018-12-19T12:34:39.237Z,16.23
2018-12-19T12:37:45.480Z,18.07
2018-12-19T12:40:51.648Z,20.17
2018-12-19T12:43:57.843Z,18.37
2018-12-19T12:47:04.216Z,21.23
2018-12-19T12:50:10.454Z,19.00
2018-12-19T12:53:16.753Z,19.13
2018-12-19T12:56:23.072Z,20.47
2018-12-19T12:59:29.370Z,17.63
2018-12-19T13:02:35.821Z,19.23
2018-12-19T13:05:42.049Z,17.53
2018-12-19T13:08:48.653Z,17.40
2018-12-19T13:11:58.782Z,19.50
2018-12-19T13:15:03.399Z,18.83
2018-12-19T13:18:09.723Z,20.87
2018-12-19T13:21:16.101Z,18.30
2018-12-19T13:24:22.601Z,21.50
2018-12-19T13:27:29.114Z,20.37
2018-12-19T13:30:35.244Z,17.40
2018-12-19T13:33:41.618Z,20.90
2018-12-19T13:36:47.874Z,19.87
2018-12-19T13:39:54.271Z,18.60
2018-12-19T13:43:00.571Z,19.37
2018-12-19T13:46:06.815Z,20.83
2018-12-19T13:49:12.998Z,19.20
2018-12-19T13:52:19.158Z,21.37
2018-12-19T13:55:25.356Z,18.97
2018-12-19T13:58:31.617Z,18.03
2018-12-19T14:01:37.955Z,20.93
2018-12-19T14:04:45.515Z,23.73
2018-12-19T14:07:52.459Z,16.37
2018-12-19T14:10:59.000Z,26.73
2018-12-19T14:14:05.305Z,18.80
2018-12-19T14:17:11.698Z,24.13
2018-12-19T14:20:17.873Z,18.13
2018-12-19T14:23:24.071Z,20.77
2018-12-19T14:26:30.525Z,16.27
2018-12-19T14:29:36.918Z,18.60
2018-12-19T14:32:43.255Z,18.10
2018-12-19T14:35:49.447Z,20.23
2018-12-19T14:38:55.666Z,15.80
2018-12-19T14:42:02.761Z,16.30
2018-12-19T14:45:09.915Z,17.97
2018-12-19T14:48:16.295Z,17.00
2018-12-19T14:51:22.646Z,16.33
2018-12-19T14:54:29.265Z,15.17
2018-12-19T14:57:36.782Z,15.60
2018-12-19T15:00:43.170Z,18.97
2018-12-19T15:03:49.508Z,18.13
2018-12-19T15:06:55.799Z,14.23
2018-12-19T15:10:02.113Z,15.47
2018-12-19T15:13:08.390Z,17.17
2018-12-19T15:16:16.642Z,17.43
2018-12-19T15:19:22.903Z,14.93
2018-12-19T15:22:29.649Z,19.10
2018-12-19T15:25:35.960Z,13.77
2018-12-19T15:28:42.293Z,23.37
2018-12-19T15:31:48.570Z,15.03
2018-12-19T15:34:54.702Z,15.43
2018-12-19T15:38:00.940Z,18.17
2018-12-19T15:41:07.134Z,13.80
2018-12-19T15:44:13.410Z,16.70
2018-12-19T15:47:19.572Z,19.27
2018-12-19T15:50:26.241Z,19.27
2018-12-19T15:53:32.460Z,20.53
2018-12-19T15:56:38.880Z,17.30
2018-12-19T15:59:46.266Z,17.63
2018-12-19T16:02:53.451Z,16.23
2018-12-19T16:05:59.693Z,18.90
2018-12-19T16:09:07.526Z,16.07
2018-12-19T16:12:13.796Z,16.40
2018-12-19T16:15:19.960Z,15.00
2018-12-19T16:18:26.086Z,18.67
2018-12-19T16:21:32.238Z,22.03
2018-12-19T16:24:38.665Z,20.67
2018-12-19T16:27:44.911Z,21.30
2018-12-19T16:30:51.144Z,19.30
2018-12-19T16:33:57.382Z,16.30
2018-12-19T16:37:03.646Z,15.73
2018-12-19T16:40:09.840Z,15.60
2018-12-19T16:43:16.019Z,15.90
2018-12-19T16:46:22.851Z,20.27
2018-12-19T16:49:29.275Z,21.07
2018-12-19T16:52:35.544Z,20.20
2018-12-19T16:55:41.704Z,16.90
2018-12-19T16:58:48.074Z,20.07
2018-12-19T17:01:54.893Z,16.73
2018-12-19T17:05:01.043Z,17.70
2018-12-19T17:08:07.101Z,17.40
2018-12-19T17:11:13.244Z,16.00
2018-12-19T17:14:19.945Z,15.87
2018-12-19T17:17:26.469Z,18.37
2018-12-19T17:20:33.353Z,16.63
2018-12-19T17:23:39.732Z,17.20
2018-12-19T17:26:45.973Z,17.63
2018-12-19T17:29:52.109Z,19.50
2018-12-19T17:32:58.311Z,16.83
2018-12-19T17:36:05.107Z,17.90
2018-12-19T17:39:11.405Z,17.53
2018-12-19T17:42:17.718Z,15.37
2018-12-19T17:45:24.201Z,18.33
2018-12-19T17:48:30.793Z,16.07
2018-12-19T17:51:37.152Z,39.87
2018-12-19T17:54:43.292Z,16.57
2018-12-19T17:57:49.358Z,16.63
2018-12-19T18:00:55.629Z,19.20
2018-12-19T18:04:01.872Z,18.67
2018-12-19T18:07:08.855Z,18.27
2018-12-19T18:10:14.968Z,20.53
2018-12-19T18:13:21.000Z,21.63
2018-12-19T18:16:27.215Z,18.50
2018-12-19T18:19:33.350Z,19.37
2018-12-19T18:22:39.407Z,18.60
2018-12-19T18:25:45.636Z,15.27
2018-12-19T18:28:51.855Z,20.23
2018-12-19T18:31:57.980Z,16.07
2018-12-19T18:35:04.460Z,16.67
2018-12-19T18:38:11.719Z,17.03
2018-12-19T18:41:17.803Z,19.80
2018-12-19T18:44:23.997Z,18.00
2018-12-19T18:47:30.094Z,32.53
2018-12-19T18:50:36.245Z,21.63
2018-12-19T18:53:43.161Z,15.30
2018-12-19T18:56:49.423Z,23.93
2018-12-19T18:59:55.749Z,18.47
2018-12-19T19:03:01.866Z,25.93
2018-12-19T19:06:08.487Z,21.20
2018-12-19T19:09:15.242Z,14.60
2018-12-19T19:12:21.642Z,19.07
2018-12-19T19:15:27.830Z,16.53
2018-12-19T19:18:33.990Z,16.10
2018-12-19T19:21:40.431Z,21.70
2018-12-19T19:24:47.231Z,20.23
2018-12-19T19:27:53.284Z,16.57
2018-12-19T19:30:59.308Z,14.93
2018-12-19T19:34:05.385Z,18.63
2018-12-19T19:37:11.388Z,21.47
2018-12-19T19:40:17.607Z,21.13
2018-12-19T19:43:26.613Z,19.33
2018-12-19T19:46:32.218Z,20.07
2018-12-19T19:49:38.523Z,17.63
2018-12-19T19:52:44.834Z,21.27
2018-12-19T19:55:51.197Z,20.97
2018-12-19T19:58:57.432Z,20.27
2018-12-19T20:02:03.874Z,24.60
2018-12-19T20:05:09.987Z,23.83
2018-12-19T20:08:16.407Z,24.37
2018-12-19T20:11:22.984Z,26.62
2018-12-19T20:14:29.926Z,25.75
2018-12-19T20:17:36.108Z,25.77
2018-12-19T20:20:42.601Z,22.27
2018-12-19T20:23:48.881Z,18.98
2018-12-19T20:26:55.112Z,20.15
2018-12-19T20:30:01.471Z,23.50
2018-12-19T20:33:07.802Z,20.88
2018-12-19T20:36:14.178Z,18.52
2018-12-19T20:39:20.612Z,22.07
2018-12-19T20:42:26.955Z,27.07
2018-12-19T20:45:33.261Z,22.40
2018-12-19T20:48:39.378Z,23.50
2018-12-19T20:51:45.807Z,25.17
2018-12-19T20:54:52.112Z,19.32
2018-12-19T20:57:58.679Z,21.90
2018-12-19T21:01:05.034Z,23.45
2018-12-19T21:04:11.180Z,25.23
2018-12-19T21:07:17.449Z,20.77
2018-12-19T21:10:24.501Z,25.27
2018-12-19T21:13:30.637Z,21.40
2018-12-19T21:16:41.979Z,19.57
2018-12-19T21:19:47.991Z,23.87
2018-12-19T21:22:54.116Z,21.45
2018-12-19T21:26:00.437Z,20.85
2018-12-19T21:29:08.070Z,20.72
2018-12-19T21:32:14.277Z,27.62
2018-12-19T21:35:20.506Z,38.78
2018-12-19T21:38:26.655Z,29.35
2018-12-19T21:41:33.125Z,22.93
2018-12-19T21:44:40.016Z,22.17
2018-12-19T21:47:46.235Z,22.80
2018-12-19T21:50:53.460Z,26.95
2018-12-19T21:53:59.762Z,20.43
2018-12-19T21:57:06.130Z,23.15
2018-12-19T22:00:21.838Z,20.30
2018-12-19T22:03:28.267Z,18.62
2018-12-19T22:06:34.499Z,21.85
2018-12-19T22:09:40.706Z,20.50
2018-12-19T22:12:47.537Z,17.77
2018-12-19T22:15:53.772Z,19.12
2018-12-19T22:19:00.430Z,21.77
2018-12-19T22:22:06.823Z,19.32
2018-12-19T22:25:13.202Z,20.15
2018-12-19T22:28:20.137Z,20.25
2018-12-19T22:31:26.512Z,23.35
2018-12-19T22:34:32.733Z,32.48
2018-12-19T22:37:38.920Z,25.92
2018-12-19T22:40:45.376Z,28.02
2018-12-19T22:43:51.724Z,21.15
2018-12-19T22:46:57.845Z,20.82
2018-12-19T22:50:05.090Z,22.27
2018-12-19T22:53:11.371Z,23.95
2018-12-19T22:56:17.623Z,16.93
2018-12-19T22:59:23.746Z,21.75
2018-12-19T23:02:35.435Z,19.55
2018-12-19T23:05:47.247Z,21.00
2018-12-19T23:08:54.444Z,19.65
2018-12-19T23:12:00.682Z,20.65
2018-12-19T23:15:06.833Z,24.70
2018-12-19T23:18:18.392Z,22.62
2018-12-19T23:21:25.000Z,26.02
2018-12-19T23:24:31.165Z,23.87
2018-12-19T23:27:37.478Z,22.85
2018-12-19T23:30:43.808Z,22.62
2018-12-19T23:33:50.293Z,25.65
2018-12-19T23:36:57.517Z,28.92
2018-12-19T23:40:04.075Z,24.85
2018-12-19T23:43:10.227Z,19.00
2018-12-19T23:46:16.494Z,28.23
2018-12-19T23:49:22.764Z,18.67
2018-12-19T23:52:29.901Z,18.25
2018-12-19T23:55:36.101Z,22.77
2018-12-19T23:58:42.403Z,35.70
